Time;durP1;ratioP1;P1;durP2;ratioP2;P2;SDS_P1;SDS_P2;PMS_P1;PMS_P2;Temp;Humidity;BMP_temperature;BMP_pressure;BME280_temperature;BME280_humidity;BME280_pressure;Samples;Min_cycle;Max_cycle;Signal;HPM_P1;HPM_P2
2023/05/24 00:01:30;;;;;;;;;;;;;;;18.61;nan;101728.91;5049695;28;20407;-79
2023/05/24 00:03:59;;;;;;;;;;;;;;;18.60;nan;101738.16;5048831;28;20344;-79
2023/05/24 00:06:26;;;;;;;;;;;;;;;18.62;nan;101731.34;5049116;28;20307;-79
2023/05/24 00:08:51;;;;;;;;;;;;;;;18.64;nan;101731.91;5048013;28;19952;-80
2023/05/24 00:11:17;;;;;;;;;;;;;;;18.65;nan;101738.16;5049614;28;19960;-79
2023/05/24 00:13:42;;;;;;;;;;;;;;;18.64;nan;101733.81;5048756;28;19924;-79
2023/05/24 00:16:08;;;;;;;;;;;;;;;18.59;nan;101733.81;5048286;28;19929;-78
2023/05/24 00:18:33;;;;;;;;;;;;;;;18.52;nan;101717.84;5047966;28;19917;-79
2023/05/24 00:20:59;;;;;;;;;;;;;;;18.45;nan;101730.88;5048787;28;19927;-79
2023/05/24 00:23:24;;;;;;;;;;;;;;;18.42;nan;101731.44;5048987;28;20006;-79
2023/05/24 00:25:50;;;;;;;;;;;;;;;18.42;nan;101726.00;5046410;28;19967;-79
2023/05/24 00:28:16;;;;;;;;;;;;;;;18.46;nan;101728.97;5048255;28;20030;-79
2023/05/24 00:30:41;;;;;;;;;;;;;;;18.46;nan;101731.69;5048576;28;20346;-79
2023/05/24 00:33:06;;;;;;;;;;;;;;;18.45;nan;101732.78;5049434;28;19917;-79
2023/05/24 00:35:32;;;;;;;;;;;;;;;18.45;nan;101730.06;5044269;28;19944;-80
2023/05/24 00:37:57;;;;;;;;;;;;;;;18.46;nan;101728.97;5049159;28;20232;-79
2023/05/24 00:40:22;;;;;;;;;;;;;;;18.47;nan;101725.16;5046421;28;19925;-79
2023/05/24 00:42:48;;;;;;;;;;;;;;;18.42;nan;101726.00;5049446;28;19921;-79
2023/05/24 00:45:13;;;;;;;;;;;;;;;18.31;nan;101722.53;5046933;28;20003;-79
2023/05/24 00:47:39;;;;;;;;;;;;;;;18.26;nan;101721.72;5046095;28;19968;-79
2023/05/24 00:50:06;;;;;;;;;;;;;;;18.25;nan;101722.81;5048502;28;20050;-79
2023/05/24 00:52:31;;;;;;;;;;;;;;;18.23;nan;101723.09;5048195;28;19925;-79
2023/05/24 00:54:57;;;;;;;;;;;;;;;18.24;nan;101730.13;5048184;28;19921;-79
2023/05/24 00:57:22;;;;;;;;;;;;;;;18.24;nan;101722.00;5048025;28;20377;-79
2023/05/24 00:59:48;;;;;;;;;;;;;;;18.27;nan;101718.72;5047336;28;20353;-79
2023/05/24 01:02:13;;;;;;;;;;;;;;;18.30;nan;101722.78;5047247;28;19970;-79
2023/05/24 01:04:38;;;;;;;;;;;;;;;18.29;nan;101727.38;5047004;28;19932;-78
2023/05/24 01:07:12;;;;;;;;;;;;;;;18.27;nan;101728.75;5046440;28;19944;-79
2023/05/24 01:09:44;;;;;;;;;;;;;;;18.22;nan;101729.59;5048070;28;19920;-78
2023/05/24 01:12:25;;;;;;;;;;;;;;;18.23;nan;101724.97;5046500;28;20007;-78
2023/05/24 01:14:55;;;;;;;;;;;;;;;18.22;nan;101726.88;5047119;28;19925;-79
2023/05/24 01:17:25;;;;;;;;;;;;;;;18.21;nan;101727.97;5047251;28;19917;-79
2023/05/24 01:19:51;;;;;;;;;;;;;;;18.12;nan;101730.41;5044962;28;19967;-79
2023/05/24 01:22:27;;;;;;;;;;;;;;;18.13;nan;101731.22;5046852;28;20319;-79
2023/05/24 01:25:00;;;;;;;;;;;;;;;18.15;nan;101739.13;5046738;28;19933;-78
2023/05/24 01:27:26;;;;;;;;;;;;;;;18.15;nan;101734.50;5046981;28;19917;-78
2023/05/24 01:29:52;;;;;;;;;;;;;;;18.18;nan;101742.09;5045675;28;20338;-78
2023/05/24 01:32:21;;;;;;;;;;;;;;;18.15;nan;101742.63;5046518;28;19925;-78
2023/05/24 01:34:46;;;;;;;;;;;;;;;18.17;nan;101747.78;5047587;28;20414;-79
2023/05/24 01:37:12;;;;;;;;;;;;;;;18.14;nan;101749.16;5046767;28;19920;-79
2023/05/24 01:39:37;;;;;;;;;;;;;;;18.14;nan;101743.72;5048341;28;19920;-79
2023/05/24 01:42:02;;;;;;;;;;;;;;;18.16;nan;101755.13;5043669;28;20304;-79
2023/05/24 01:44:30;;;;;;;;;;;;;;;18.10;nan;101757.00;5048190;28;20060;-79
2023/05/24 01:47:16;;;;;;;;;;;;;;;18.15;nan;101749.97;5045507;28;19928;-79
2023/05/24 01:49:46;;;;;;;;;;;;;;;18.15;nan;101747.25;5047789;28;19924;-79
2023/05/24 01:52:14;;;;;;;;;;;;;;;18.12;nan;101751.31;5044796;28;19978;-80
2023/05/24 01:54:49;;;;;;;;;;;;;;;18.12;nan;101746.69;5047323;28;19978;-79
2023/05/24 01:57:17;;;;;;;;;;;;;;;18.15;nan;101745.34;5047149;28;19924;-79
2023/05/24 01:59:44;;;;;;;;;;;;;;;18.09;nan;101746.44;5042696;28;19952;-79
2023/05/24 02:02:10;;;;;;;;;;;;;;;18.04;nan;101738.31;5044441;28;19921;-79
2023/05/24 02:04:35;;;;;;;;;;;;;;;18.04;nan;101741.03;5046325;28;19924;-79
2023/05/24 02:07:00;;;;;;;;;;;;;;;18.08;nan;101750.22;5044816;28;19975;-79
2023/05/24 02:09:26;;;;;;;;;;;;;;;18.09;nan;101757.28;5046055;28;19917;-79
2023/05/24 02:11:51;;;;;;;;;;;;;;;18.08;nan;101750.22;5045481;28;19920;-79
2023/05/24 02:14:18;;;;;;;;;;;;;;;18.08;nan;101758.38;5047843;28;19978;-80
2023/05/24 02:16:45;;;;;;;;;;;;;;;18.05;nan;101754.31;5046589;28;19921;-80
2023/05/24 02:19:10;;;;;;;;;;;;;;;18.09;nan;101762.69;5046742;28;19923;-80
2023/05/24 02:21:36;;;;;;;;;;;;;;;18.07;nan;101754.03;5045276;28;20296;-80
2023/05/24 02:24:01;;;;;;;;;;;;;;;18.06;nan;101757.81;5043312;28;19921;-79
2023/05/24 02:26:27;;;;;;;;;;;;;;;18.03;nan;101755.66;5045618;28;19956;-80
2023/05/24 02:28:52;;;;;;;;;;;;;;;18.00;nan;101761.66;5045272;28;19923;-80
2023/05/24 02:31:17;;;;;;;;;;;;;;;18.03;nan;101764.63;5046451;28;19931;-79
2023/05/24 02:33:43;;;;;;;;;;;;;;;17.95;nan;101762.44;5045319;28;20016;-80
2023/05/24 02:36:08;;;;;;;;;;;;;;;17.98;nan;101761.09;5046327;28;20388;-79
2023/05/24 02:38:33;;;;;;;;;;;;;;;18.00;nan;101764.34;5045068;28;20000;-79
2023/05/24 02:40:59;;;;;;;;;;;;;;;18.04;nan;101770.84;5043940;28;19920;-79
2023/05/24 02:43:24;;;;;;;;;;;;;;;18.05;nan;101761.63;5047365;28;19921;-79
2023/05/24 02:45:49;;;;;;;;;;;;;;;18.07;nan;101764.88;5045535;28;19925;-79
2023/05/24 02:48:15;;;;;;;;;;;;;;;18.08;nan;101769.22;5044064;28;19943;-79
2023/05/24 02:50:40;;;;;;;;;;;;;;;18.08;nan;101769.22;5044034;28;19930;-79
2023/05/24 02:53:05;;;;;;;;;;;;;;;18.03;nan;101770.03;5046365;28;19917;-79
2023/05/24 02:55:31;;;;;;;;;;;;;;;17.99;nan;101774.38;5046209;28;19916;-79
2023/05/24 02:57:56;;;;;;;;;;;;;;;18.00;nan;101772.50;5044228;28;19925;-79
2023/05/24 03:00:22;;;;;;;;;;;;;;;17.96;nan;101774.13;5044741;28;19921;-80
2023/05/24 03:02:49;;;;;;;;;;;;;;;17.93;nan;101772.75;5044230;28;19928;-80
2023/05/24 03:05:15;;;;;;;;;;;;;;;17.95;nan;101773.28;5042012;28;19979;-80
2023/05/24 03:07:41;;;;;;;;;;;;;;;17.95;nan;101773.28;5046418;28;20234;-79
2023/05/24 03:10:06;;;;;;;;;;;;;;;18.01;nan;101765.97;5046854;28;19995;-80
2023/05/24 03:12:32;;;;;;;;;;;;;;;18.02;nan;101779.25;5062378;28;20410;-80
2023/05/24 03:14:57;;;;;;;;;;;;;;;18.04;nan;101770.84;5047149;28;19921;-80
2023/05/24 03:17:22;;;;;;;;;;;;;;;18.04;nan;101774.38;5046433;28;19921;-80
2023/05/24 03:19:48;;;;;;;;;;;;;;;18.04;nan;101776.28;5045165;28;19962;-79
2023/05/24 03:22:13;;;;;;;;;;;;;;;18.02;nan;101773.84;5045770;28;20273;-80
2023/05/24 03:24:38;;;;;;;;;;;;;;;18.01;nan;101776.81;5045844;28;20186;-80
2023/05/24 03:27:04;;;;;;;;;;;;;;;18.01;nan;101771.41;5044162;28;20372;-80
2023/05/24 03:29:30;;;;;;;;;;;;;;;17.98;nan;101771.97;5045238;28;20380;-80
2023/05/24 03:31:55;;;;;;;;;;;;;;;17.99;nan;101776.28;5042817;28;19925;-80
2023/05/24 03:34:21;;;;;;;;;;;;;;;17.96;nan;101774.13;5044494;28;19971;-79
2023/05/24 03:36:46;;;;;;;;;;;;;;;17.92;nan;101775.72;5044488;28;20367;-79
2023/05/24 03:39:11;;;;;;;;;;;;;;;17.88;nan;101777.38;5042589;28;20401;-80
2023/05/24 03:41:37;;;;;;;;;;;;;;;17.88;nan;101769.25;5058968;28;20160;-80
2023/05/24 03:44:02;;;;;;;;;;;;;;;17.90;nan;101776.00;5047439;28;19940;-80
2023/05/24 03:46:27;;;;;;;;;;;;;;;17.92;nan;101778.44;5045037;28;19943;-80
2023/05/24 03:48:53;;;;;;;;;;;;;;;17.92;nan;101783.88;5044349;28;19978;-80
2023/05/24 03:51:18;;;;;;;;;;;;;;;17.88;nan;101789.03;5045259;28;19924;-80
2023/05/24 03:53:44;;;;;;;;;;;;;;;17.86;nan;101790.38;5042995;28;19986;-80
2023/05/24 03:56:09;;;;;;;;;;;;;;;17.86;nan;101790.38;5046066;28;19917;-80
2023/05/24 03:58:34;;;;;;;;;;;;;;;17.87;nan;101797.44;5043752;28;20015;-80
2023/05/24 04:01:00;;;;;;;;;;;;;;;17.87;nan;101789.31;5045182;28;19921;-80
2023/05/24 04:03:26;;;;;;;;;;;;;;;17.90;nan;101795.00;5045077;28;19944;-80
2023/05/24 04:05:52;;;;;;;;;;;;;;;17.92;nan;101795.53;5044296;28;19921;-80
2023/05/24 04:08:17;;;;;;;;;;;;;;;17.87;nan;101792.81;5046626;28;19916;-80
2023/05/24 04:10:43;;;;;;;;;;;;;;;17.87;nan;101797.44;5042901;28;19917;-79
2023/05/24 04:13:08;;;;;;;;;;;;;;;17.91;nan;101798.50;5047008;28;19917;-80
2023/05/24 04:15:33;;;;;;;;;;;;;;;17.91;nan;101804.75;5048491;28;19925;-80
2023/05/24 04:17:59;;;;;;;;;;;;;;;17.91;nan;101801.22;5049095;28;19974;-80
2023/05/24 04:20:26;;;;;;;;;;;;;;;17.91;nan;101806.66;5044998;28;19924;-80
2023/05/24 04:22:51;;;;;;;;;;;;;;;17.89;nan;101808.81;5048215;28;20027;-80
2023/05/24 04:25:17;;;;;;;;;;;;;;;17.81;nan;101810.19;5046755;28;20484;-80
2023/05/24 04:27:43;;;;;;;;;;;;;;;17.80;nan;101806.66;5048551;28;19916;-80
2023/05/24 04:30:09;;;;;;;;;;;;;;;17.73;nan;101805.28;5046763;28;20015;-80
2023/05/24 04:32:35;;;;;;;;;;;;;;;17.72;nan;101807.19;5047774;28;20023;-80
2023/05/24 04:35:04;;;;;;;;;;;;;;;17.68;nan;101811.53;5044329;28;19954;-79
2023/05/24 04:37:30;;;;;;;;;;;;;;;17.66;nan;101813.66;5046384;28;19921;-80
2023/05/24 04:39:56;;;;;;;;;;;;;;;17.66;nan;101812.84;5046416;28;19999;-80
2023/05/24 04:42:21;;;;;;;;;;;;;;;17.63;nan;101819.63;5046658;28;20039;-80
2023/05/24 04:44:46;;;;;;;;;;;;;;;17.63;nan;101822.34;5044246;28;20015;-80
2023/05/24 04:47:12;;;;;;;;;;;;;;;17.63;nan;101832.34;5047395;28;19967;-81
2023/05/24 04:49:38;;;;;;;;;;;;;;;17.60;nan;101832.91;5042552;28;19974;-80
2023/05/24 04:52:04;;;;;;;;;;;;;;;17.62;nan;101831.56;5040488;28;19953;-80
2023/05/24 04:54:29;;;;;;;;;;;;;;;17.64;nan;101828.56;5038575;28;20433;-80
2023/05/24 04:56:55;;;;;;;;;;;;;;;17.67;nan;101836.16;5042682;28;19921;-80
2023/05/24 04:59:20;;;;;;;;;;;;;;;17.72;nan;101828.06;5041941;28;20451;-80
2023/05/24 05:01:45;;;;;;;;;;;;;;;17.76;nan;101837.25;5045359;28;19995;-80
2023/05/24 05:04:11;;;;;;;;;;;;;;;17.80;nan;101836.47;5040365;28;19920;-80
2023/05/24 05:06:42;;;;;;;;;;;;;;;17.74;nan;101839.44;5041226;28;20284;-79
2023/05/24 05:09:12;;;;;;;;;;;;;;;17.69;nan;101840.25;5045686;28;19920;-79
2023/05/24 05:11:38;;;;;;;;;;;;;;;17.74;nan;101840.25;5042645;28;20389;-80
2023/05/24 05:14:05;;;;;;;;;;;;;;;17.76;nan;101837.25;5047910;28;19971;-79
2023/05/24 05:16:30;;;;;;;;;;;;;;;17.76;nan;101834.56;5046025;28;19927;-79
2023/05/24 05:18:56;;;;;;;;;;;;;;;17.76;nan;101835.38;5045214;28;19925;-79
2023/05/24 05:21:21;;;;;;;;;;;;;;;17.80;nan;101841.91;5042320;28;19947;-79
2023/05/24 05:23:46;;;;;;;;;;;;;;;17.84;nan;101841.34;5042229;28;19917;-79
2023/05/24 05:26:12;;;;;;;;;;;;;;;17.81;nan;101848.13;5044685;28;19921;-81
2023/05/24 05:28:37;;;;;;;;;;;;;;;17.79;nan;101847.59;5059271;28;19917;-80
2023/05/24 05:31:02;;;;;;;;;;;;;;;17.80;nan;101846.50;5043635;28;20411;-79
2023/05/24 05:33:29;;;;;;;;;;;;;;;17.80;nan;101847.31;5044776;28;20377;-79
2023/05/24 05:35:55;;;;;;;;;;;;;;;17.85;nan;101854.63;5043753;28;19920;-79
2023/05/24 05:38:20;;;;;;;;;;;;;;;17.89;nan;101854.91;5046304;28;20419;-79
2023/05/24 05:40:45;;;;;;;;;;;;;;;17.90;nan;101851.94;5048340;28;20509;-79
2023/05/24 05:43:11;;;;;;;;;;;;;;;17.93;nan;101862.22;5046947;28;20365;-79
2023/05/24 05:45:36;;;;;;;;;;;;;;;17.89;nan;101852.19;5048155;28;20396;-78
2023/05/24 05:48:01;;;;;;;;;;;;;;;17.94;nan;101871.16;5048273;28;20435;-79
2023/05/24 05:50:27;;;;;;;;;;;;;;;17.99;nan;101871.19;5046577;28;20452;-79
2023/05/24 05:52:52;;;;;;;;;;;;;;;18.07;nan;101870.63;5047834;28;19917;-79
2023/05/24 05:55:17;;;;;;;;;;;;;;;18.15;nan;101867.41;5047149;28;20905;-78
2023/05/24 05:57:43;;;;;;;;;;;;;;;18.17;nan;101869.84;5047674;28;19920;-79
2023/05/24 06:00:08;;;;;;;;;;;;;;;18.20;nan;101875.53;5047407;28;19920;-79
2023/05/24 06:02:34;;;;;;;;;;;;;;;18.26;nan;101874.44;5047730;28;19960;-78
2023/05/24 06:04:59;;;;;;;;;;;;;;;18.27;nan;101875.25;5048095;28;20011;-79
2023/05/24 06:07:25;;;;;;;;;;;;;;;18.31;nan;101874.47;5047128;28;19927;-78
2023/05/24 06:09:50;;;;;;;;;;;;;;;18.40;nan;101880.13;5047796;28;20388;-79
2023/05/24 06:12:15;;;;;;;;;;;;;;;18.44;nan;101878.50;5046754;28;19970;-79
2023/05/24 06:14:41;;;;;;;;;;;;;;;18.52;nan;101893.44;5047163;28;19975;-79
2023/05/24 06:17:06;;;;;;;;;;;;;;;18.55;nan;101890.16;5047382;28;19956;-79
2023/05/24 06:19:31;;;;;;;;;;;;;;;18.62;nan;101898.81;5046861;28;19916;-78
2023/05/24 06:21:57;;;;;;;;;;;;;;;18.64;nan;101908.34;5046573;28;20398;-80
2023/05/24 06:24:23;;;;;;;;;;;;;;;18.66;nan;101902.66;5047056;28;20388;-79
2023/05/24 06:26:51;;;;;;;;;;;;;;;18.68;nan;101900.50;5047942;28;20039;-79
2023/05/24 06:29:20;;;;;;;;;;;;;;;18.73;nan;101907.81;5047842;28;19917;-79
2023/05/24 06:31:46;;;;;;;;;;;;;;;18.80;nan;101903.72;5047778;28;19921;-80
2023/05/24 06:34:12;;;;;;;;;;;;;;;18.80;nan;101906.41;5047639;28;19921;-80
2023/05/24 06:36:41;;;;;;;;;;;;;;;18.83;nan;101913.19;5047046;28;19917;-80
2023/05/24 06:39:10;;;;;;;;;;;;;;;18.83;nan;101916.72;5048080;28;19917;-80
2023/05/24 06:41:36;;;;;;;;;;;;;;;18.88;nan;101919.47;5046569;28;19967;-79
2023/05/24 06:44:02;;;;;;;;;;;;;;;18.90;nan;101920.00;5047577;28;19925;-80
2023/05/24 06:46:27;;;;;;;;;;;;;;;18.96;nan;101923.50;5046435;28;19932;-79
2023/05/24 06:48:52;;;;;;;;;;;;;;;19.01;nan;101932.44;5047365;28;20152;-80
2023/05/24 06:51:18;;;;;;;;;;;;;;;19.07;nan;101930.53;5047709;28;20015;-80
2023/05/24 06:53:43;;;;;;;;;;;;;;;19.17;nan;101937.81;5047333;28;19927;-80
2023/05/24 06:56:09;;;;;;;;;;;;;;;19.26;nan;101937.00;5047214;28;19952;-80
2023/05/24 06:58:35;;;;;;;;;;;;;;;19.33;nan;101940.22;5047286;28;19917;-79
2023/05/24 07:01:01;;;;;;;;;;;;;;;19.42;nan;101943.19;5047608;28;19974;-79
2023/05/24 07:03:26;;;;;;;;;;;;;;;19.52;nan;101951.28;5047137;28;19920;-80
2023/05/24 07:05:52;;;;;;;;;;;;;;;19.58;nan;101944.78;5042460;28;20069;-80
2023/05/24 07:08:17;;;;;;;;;;;;;;;19.67;nan;101949.63;5046673;28;20343;-80
2023/05/24 07:10:43;;;;;;;;;;;;;;;19.71;nan;101953.41;5047442;28;19930;-80
2023/05/24 07:13:12;;;;;;;;;;;;;;;19.67;nan;101947.72;5046234;28;19924;-78
2023/05/24 07:15:37;;;;;;;;;;;;;;;19.74;nan;101950.09;5046752;28;19917;-79
2023/05/24 07:18:02;;;;;;;;;;;;;;;19.86;nan;101953.31;5047120;28;19928;-79
2023/05/24 07:20:28;;;;;;;;;;;;;;;19.92;nan;101960.34;5044791;28;19927;-80
2023/05/24 07:22:53;;;;;;;;;;;;;;;19.96;nan;101964.16;5059428;28;20416;-80
2023/05/24 07:25:19;;;;;;;;;;;;;;;20.01;nan;101957.84;5045575;28;19928;-80
2023/05/24 07:27:44;;;;;;;;;;;;;;;19.98;nan;101964.66;5046555;28;20375;-79
2023/05/24 07:30:11;;;;;;;;;;;;;;;19.96;nan;101961.44;5046250;28;19916;-79
2023/05/24 07:32:36;;;;;;;;;;;;;;;20.02;nan;101959.47;5045489;28;19917;-80
2023/05/24 07:35:02;;;;;;;;;;;;;;;20.12;nan;101968.41;5046793;28;20446;-79
2023/05/24 07:37:27;;;;;;;;;;;;;;;20.19;nan;101968.88;5045394;28;20019;-79
2023/05/24 07:39:53;;;;;;;;;;;;;;;20.20;nan;101981.38;5046837;28;20483;-79
2023/05/24 07:42:19;;;;;;;;;;;;;;;20.25;nan;101982.44;5045893;28;19983;-80
2023/05/24 07:44:44;;;;;;;;;;;;;;;20.25;nan;101977.00;5050240;28;20395;-80
2023/05/24 07:47:10;;;;;;;;;;;;;;;20.27;nan;101975.63;5049749;28;19925;-80
2023/05/24 07:49:35;;;;;;;;;;;;;;;20.32;nan;101982.94;5050219;28;19921;-80
2023/05/24 07:52:02;;;;;;;;;;;;;;;20.36;nan;101986.72;5050220;28;19932;-79
2023/05/24 07:54:28;;;;;;;;;;;;;;;20.36;nan;101984.00;5049011;28;19947;-80
2023/05/24 07:56:53;;;;;;;;;;;;;;;20.41;nan;101997.59;5050514;28;19946;-80
2023/05/24 07:59:19;;;;;;;;;;;;;;;20.49;nan;101997.81;5049618;28;19932;-80
2023/05/24 08:01:44;;;;;;;;;;;;;;;20.57;nan;102007.28;5050151;28;20352;-80
2023/05/24 08:04:10;;;;;;;;;;;;;;;20.65;nan;101995.78;5049416;28;19921;-80
2023/05/24 08:06:35;;;;;;;;;;;;;;;20.75;nan;102003.84;5049775;28;19931;-80
2023/05/24 08:09:04;;;;;;;;;;;;;;;20.78;nan;102000.56;5050004;28;19939;-80
2023/05/24 08:11:29;;;;;;;;;;;;;;;20.84;nan;102001.34;5049096;28;19981;-80
2023/05/24 08:13:54;;;;;;;;;;;;;;;20.91;nan;101998.28;5050513;28;20022;-81
2023/05/24 08:16:20;;;;;;;;;;;;;;;20.87;nan;101997.22;5049176;28;19921;-81
2023/05/24 08:18:45;;;;;;;;;;;;;;;20.90;nan;101997.47;5049647;28;19920;-80
2023/05/24 08:21:11;;;;;;;;;;;;;;;20.97;nan;101997.91;5047146;28;19921;-80
2023/05/24 08:23:36;;;;;;;;;;;;;;;21.00;nan;101996.53;5049391;28;19923;-80
2023/05/24 08:26:01;;;;;;;;;;;;;;;21.07;nan;102005.19;5050399;28;19921;-80
2023/05/24 08:28:28;;;;;;;;;;;;;;;21.11;nan;102006.25;5049804;28;19931;-79
2023/05/24 08:30:53;;;;;;;;;;;;;;;21.21;nan;102006.16;5045866;28;19921;-80
2023/05/24 08:33:19;;;;;;;;;;;;;;;21.28;nan;102017.53;5049746;28;20011;-80
2023/05/24 08:35:44;;;;;;;;;;;;;;;21.35;nan;102022.63;5050157;28;19920;-80
2023/05/24 08:38:09;;;;;;;;;;;;;;;21.38;nan;102017.44;5049715;28;20019;-79
2023/05/24 08:40:35;;;;;;;;;;;;;;;21.36;nan;102014.19;5049302;28;20324;-80
2023/05/24 08:43:00;;;;;;;;;;;;;;;21.37;nan;102018.53;5050003;28;20265;-79
2023/05/24 08:45:28;;;;;;;;;;;;;;;21.41;nan;102025.03;5048225;28;20015;-80
2023/05/24 08:47:54;;;;;;;;;;;;;;;21.47;nan;102024.97;5046144;28;19952;-80
2023/05/24 08:50:20;;;;;;;;;;;;;;;21.53;nan;102030.06;5049590;28;19971;-80
2023/05/24 08:52:45;;;;;;;;;;;;;;;21.61;nan;102021.25;5049705;28;19964;-80
2023/05/24 08:55:11;;;;;;;;;;;;;;;21.73;nan;102018.13;5048399;28;20347;-80
2023/05/24 08:57:38;;;;;;;;;;;;;;;21.84;nan;102016.03;5049161;28;19917;-81
2023/05/24 09:00:05;;;;;;;;;;;;;;;21.83;nan;102023.41;5050059;28;19944;-80
2023/05/24 09:02:30;;;;;;;;;;;;;;;21.82;nan;102027.25;5054194;28;20435;-80
2023/05/24 09:04:56;;;;;;;;;;;;;;;21.88;nan;102028.81;5050775;28;19921;-80
2023/05/24 09:07:24;;;;;;;;;;;;;;;21.95;nan;102034.72;5048576;28;20316;-80
2023/05/24 09:09:55;;;;;;;;;;;;;;;21.91;nan;102047.34;5049910;28;19939;-80
2023/05/24 09:12:20;;;;;;;;;;;;;;;21.90;nan;102040.25;5048721;28;20076;-80
2023/05/24 09:14:46;;;;;;;;;;;;;;;21.93;nan;102036.94;5049510;28;19916;-80
2023/05/24 09:17:14;;;;;;;;;;;;;;;22.00;nan;102031.91;5048518;28;19940;-80
2023/05/24 09:19:42;;;;;;;;;;;;;;;22.13;nan;102032.34;5047629;28;19970;-80
2023/05/24 09:22:08;;;;;;;;;;;;;;;22.20;nan;102040.97;5046746;28;19917;-79
2023/05/24 09:24:39;;;;;;;;;;;;;;;22.25;nan;102040.88;5048525;28;20428;-80
2023/05/24 09:27:05;;;;;;;;;;;;;;;;;;5049258;28;19923;-80
2023/05/24 09:29:34;;;;;;;;;;;;;;;22.42;nan;102041.16;5048222;28;20300;-80
2023/05/24 09:31:59;;;;;;;;;;;;;;;22.36;nan;102036.91;5049211;28;20160;-80
2023/05/24 09:34:24;;;;;;;;;;;;;;;22.36;nan;102041.56;5048431;28;19959;-80
2023/05/24 09:36:51;;;;;;;;;;;;;;;22.32;nan;102049.53;5049333;28;19916;-80
2023/05/24 09:39:19;;;;;;;;;;;;;;;22.30;nan;102049.00;5047863;28;19917;-80
2023/05/24 09:41:54;;;;;;;;;;;;;;;22.28;nan;102046.59;5048436;28;19921;-80
2023/05/24 09:44:23;;;;;;;;;;;;;;;22.29;nan;102055.59;5047810;28;20380;-80
2023/05/24 09:46:48;;;;;;;;;;;;;;;22.35;nan;102059.84;5047914;28;19942;-81
2023/05/24 09:49:13;;;;;;;;;;;;;;;22.38;nan;102059.25;5047613;28;20436;-80
2023/05/24 09:51:38;;;;;;;;;;;;;;;22.39;nan;102062.78;5048810;28;19927;-80
2023/05/24 09:54:04;;;;;;;;;;;;;;;22.43;nan;102061.09;5048139;28;19917;-80
2023/05/24 09:56:31;;;;;;;;;;;;;;;22.45;nan;102065.19;5047748;28;19977;-80
2023/05/24 09:58:57;;;;;;;;;;;;;;;22.42;nan;102068.47;5047664;28;19931;-80
2023/05/24 10:01:24;;;;;;;;;;;;;;;22.32;nan;102063.19;5047060;28;19932;-80
2023/05/24 10:03:53;;;;;;;;;;;;;;;22.30;nan;102070.84;5048617;28;20384;-80
2023/05/24 10:06:19;;;;;;;;;;;;;;;22.28;nan;102059.41;5046505;28;19932;-80
2023/05/24 10:08:47;;;;;;;;;;;;;;;22.22;nan;102068.78;5048521;28;20292;-80
2023/05/24 10:11:12;;;;;;;;;;;;;;;22.22;nan;102064.13;5047710;28;19924;-80
2023/05/24 10:13:38;;;;;;;;;;;;;;;22.23;nan;102070.41;5047861;28;20300;-80
2023/05/24 10:16:03;;;;;;;;;;;;;;;22.27;nan;102071.44;5047413;28;19921;-80
2023/05/24 10:18:28;;;;;;;;;;;;;;;;;;5047359;28;20284;-80
2023/05/24 10:20:56;;;;;;;;;;;;;;;22.43;nan;102072.81;5046462;28;19917;-81
2023/05/24 10:23:23;;;;;;;;;;;;;;;22.50;nan;102078.75;5046034;28;19950;-80
2023/05/24 10:25:50;;;;;;;;;;;;;;;22.52;nan;102082.00;5046909;28;19928;-79
2023/05/24 10:28:17;;;;;;;;;;;;;;;22.56;nan;102080.28;5039584;28;19924;-81
2023/05/24 10:30:42;;;;;;;;;;;;;;;22.56;nan;102085.75;5047191;28;19955;-81
2023/05/24 10:33:08;;;;;;;;;;;;;;;22.57;nan;102087.38;5047384;28;19960;-81
2023/05/24 10:35:36;;;;;;;;;;;;;;;22.64;nan;102087.00;5045064;28;19925;-81
2023/05/24 10:38:06;;;;;;;;;;;;;;;22.74;nan;102094.22;5044818;28;19920;-80
2023/05/24 10:40:31;;;;;;;;;;;;;;;22.75;nan;102099.38;5049635;28;19928;-80
2023/05/24 10:42:57;;;;;;;;;;;;;;;22.82;nan;102090.84;5046965;28;19925;-80
2023/05/24 10:45:34;;;;;;;;;;;;;;;22.85;nan;102095.72;5047789;28;19924;-81
2023/05/24 10:48:12;;;;;;;;;;;;;;;22.77;nan;102096.34;5047341;28;19978;-81
2023/05/24 10:50:37;;;;;;;;;;;;;;;22.69;nan;102094.31;5048455;28;19970;-81
2023/05/24 10:53:26;;;;;;;;;;;;;;;22.68;nan;102096.22;5048162;28;19920;-80
2023/05/24 10:55:51;;;;;;;;;;;;;;;22.54;nan;102098.88;5045227;28;20485;-81
2023/05/24 10:58:17;;;;;;;;;;;;;;;22.52;nan;102094.84;5047593;28;20043;-81
2023/05/24 11:00:43;;;;;;;;;;;;;;;22.56;nan;102099.41;5048001;28;19999;-80
2023/05/24 11:03:09;;;;;;;;;;;;;;;22.66;nan;102100.38;5045702;28;19917;-81
2023/05/24 11:05:48;;;;;;;;;;;;;;;22.71;nan;102094.81;5048096;28;19967;-81
2023/05/24 11:08:13;;;;;;;;;;;;;;;22.71;nan;102097.56;5046938;28;19974;-81
2023/05/24 11:10:40;;;;;;;;;;;;;;;22.75;nan;102109.50;5048672;28;20380;-81
2023/05/24 11:13:08;;;;;;;;;;;;;;;22.79;nan;102100.41;5047569;28;20311;-80
2023/05/24 11:15:34;;;;;;;;;;;;;;;22.77;nan;102107.28;5045827;28;19951;-81
2023/05/24 11:18:07;;;;;;;;;;;;;;;22.68;nan;102114.53;5047705;28;19921;-81
2023/05/24 11:20:32;;;;;;;;;;;;;;;22.69;nan;102116.16;5042696;28;19920;-81
2023/05/24 11:22:59;;;;;;;;;;;;;;;22.73;nan;102120.72;5043430;28;20386;-81
2023/05/24 11:25:25;;;;;;;;;;;;;;;22.77;nan;102112.75;5048619;28;19929;-81
2023/05/24 11:27:50;;;;;;;;;;;;;;;22.83;nan;102117.06;5047612;28;19923;-80
2023/05/24 11:30:16;;;;;;;;;;;;;;;22.81;nan;102113.78;5048528;28;19991;-81
2023/05/24 11:32:46;;;;;;;;;;;;;;;22.68;nan;102122.72;5051069;28;19951;-81
2023/05/24 11:35:11;;;;;;;;;;;;;;;22.67;nan;102113.72;5047616;28;19917;-81
2023/05/24 11:37:37;;;;;;;;;;;;;;;22.68;nan;102120.00;5049464;28;20099;-81
2023/05/24 11:40:04;;;;;;;;;;;;;;;22.71;nan;102120.22;5049750;28;19923;-81
2023/05/24 11:42:29;;;;;;;;;;;;;;;22.78;nan;102119.84;5050206;28;19920;-81
2023/05/24 11:44:55;;;;;;;;;;;;;;;22.84;nan;102118.69;5049688;28;19990;-81
2023/05/24 11:47:21;;;;;;;;;;;;;;;22.87;nan;102120.81;5049248;28;20405;-82
2023/05/24 11:49:52;;;;;;;;;;;;;;;22.92;nan;102127.00;5051431;28;19979;-81
2023/05/24 11:52:17;;;;;;;;;;;;;;;22.92;nan;102124.28;5049472;28;19939;-81
2023/05/24 11:54:43;;;;;;;;;;;;;;;22.93;nan;102122.34;5049454;28;20380;-81
2023/05/24 11:57:11;;;;;;;;;;;;;;;22.94;nan;102132.19;5048488;28;19917;-81
2023/05/24 11:59:37;;;;;;;;;;;;;;;23.01;nan;102127.16;5051222;28;19948;-81
2023/05/24 12:02:07;;;;;;;;;;;;;;;23.00;nan;102128.28;5047848;28;19967;-80
2023/05/24 12:04:33;;;;;;;;;;;;;;;22.95;nan;102131.06;5050849;28;19963;-80
2023/05/24 12:06:59;;;;;;;;;;;;;;;22.92;nan;102128.94;5049444;28;19949;-81
2023/05/24 12:09:24;;;;;;;;;;;;;;;22.85;nan;102131.25;5047608;28;19917;-80
2023/05/24 12:11:50;;;;;;;;;;;;;;;22.82;nan;102135.38;5051078;28;19923;-80
2023/05/24 12:14:16;;;;;;;;;;;;;;;22.83;nan;102137.00;5047106;28;19925;-80
2023/05/24 12:16:42;;;;;;;;;;;;;;;22.87;nan;102139.97;5050362;28;19917;-80
2023/05/24 12:19:11;;;;;;;;;;;;;;;22.90;nan;102136.63;5048183;28;19999;-80
2023/05/24 12:21:39;;;;;;;;;;;;;;;22.92;nan;102139.88;5049410;28;19917;-80
2023/05/24 12:24:12;;;;;;;;;;;;;;;22.88;nan;102147.03;5049139;28;20396;-80
2023/05/24 12:26:46;;;;;;;;;;;;;;;22.88;nan;102149.78;5049482;28;19924;-80
2023/05/24 12:29:11;;;;;;;;;;;;;;;22.84;nan;102149.56;5046742;28;20376;-80
2023/05/24 12:31:41;;;;;;;;;;;;;;;22.83;nan;102145.22;5054035;28;19944;-80
2023/05/24 12:34:17;;;;;;;;;;;;;;;22.78;nan;102150.69;5052013;28;19920;-80
2023/05/24 12:36:43;;;;;;;;;;;;;;;22.81;nan;102141.94;5053399;28;19923;-80
2023/05/24 12:39:21;;;;;;;;;;;;;;;22.78;nan;102142.50;5050406;28;20363;-80
2023/05/24 12:41:51;;;;;;;;;;;;;;;22.80;nan;102140.31;5051769;28;19947;-80
2023/05/24 12:44:16;;;;;;;;;;;;;;;22.81;nan;102141.94;5050423;28;19928;-80
2023/05/24 12:46:41;;;;;;;;;;;;;;;22.86;nan;102141.06;5054122;28;19917;-80
2023/05/24 12:49:08;;;;;;;;;;;;;;;22.85;nan;102143.00;5052770;28;20411;-80
2023/05/24 12:51:35;;;;;;;;;;;;;;;22.90;nan;102142.09;5053386;28;19917;-80
2023/05/24 12:54:03;;;;;;;;;;;;;;;22.92;nan;102142.59;5051792;28;20032;-80